• Join FlightAware (Why Join?)
  • Login
  • US Flag 
12:28PM EDT


 

Airport Tracker/Info


-or-


 

Live Flight TrackerFlight Track Log ✈ ASH3738 ✈ 08-May-2013 ✈ KOKC - KIAD

Flight Track Log - Related Links

Times and Time Zones

All times are in EDT time to prevent confusion due to time zone crossing. See the ASH3738 flight status page for this flight to view local times or setup timezone preferences in your user account.

Time Position Orientation Groundspeed Altitude Reporting Facility
EDT Latitude Longitude Course Direction KTS MPH feet Rate Location/Type
12:07PM 35.3686 -97.6122 164° South 154 177 2,000  Level Fort Worth Center
12:08PM 35.3247 -97.5967 164° South 193 222 3,900 1,740 Climbing Fort Worth Center
12:09PM 35.3542 -97.5053 68° East 311 358 5,800 2,160 Climbing Fort Worth Center
12:11PM 35.4431 -97.3242 59° Northeast 296 341 11,100 2,160 Climbing Kansas City Center
12:12PM 35.4900 -97.2297 59° Northeast 313 360 12,900 1,800 Climbing Kansas City Center
12:13PM 35.5533 -97.1039 58° Northeast 352 405 14,900 1,800 Climbing Kansas City Center
12:15PM 35.6092 -96.9919 58° Northeast 377 434 16,700 1,800 Climbing Kansas City Center
12:16PM 35.6656 -96.8775 59° Northeast 389 448 18,700 1,920 Climbing Kansas City Center
12:17PM 35.7222 -96.7625 59° Northeast 393 452 20,700 1,920 Climbing Kansas City Center
12:18PM 35.7789 -96.6472 59° Northeast 394 453 22,700 1,680 Climbing Kansas City Center
12:19PM 35.8353 -96.5319 59° Northeast 394 453 24,200 1,440 Climbing Kansas City Center
12:20PM 35.9036 -96.3906 59° Northeast 407 468 25,700 1,260 Climbing Kansas City Center
12:21PM 35.9633 -96.2689 59° Northeast 414 476 26,900 1,140 Climbing Kansas City Center
12:22PM 36.0244 -96.1425 59° Northeast 423 487 28,100 1,140 Climbing Kansas City Center
12:23PM 36.0861 -96.0167 59° Northeast 428 493 29,300 1,080 Climbing Kansas City Center
12:24PM 36.1483 -95.8892 59° Northeast 431 496 30,400 1,020 Climbing Kansas City Center
12:25PM 36.2050 -95.7583 62° Northeast 432 497 31,400 960 Climbing Kansas City Center
12:26PM 36.2472 -95.6133 70° East 438 504 32,400 1,080 Climbing Kansas City Center
12:27PM 36.2972 -95.4444 70° East 437 503 33,700 1,080 Climbing Kansas City Center
12:28PM 36.3381 -95.3039 70° East 436 502 34,700 960 Climbing Kansas City Center
12:29PM 36.3786 -95.1644 70° East 432 497 35,700 600 Climbing Kansas City Center
12:30PM 36.4219 -95.0114 71° East 427 491 36,000 120 Climbing Kansas City Center
12:31PM 36.4628 -94.8669 71° East 437 503 36,000  Level Kansas City Center
12:32PM 36.5061 -94.7139 71° East 459 528 36,000  Level Kansas City Center
12:33PM 36.5489 -94.5639 70° East 463 533 36,000  Level Kansas City Center
12:34PM 36.5911 -94.4167 70° East 457 526 36,000  Level Kansas City Center
12:35PM 36.6319 -94.2681 71° East 453 521 36,000  Level Kansas City Center
12:36PM 36.6742 -94.1136 71° East 465 535 36,000  Level Kansas City Center
12:37PM 36.7269 -93.9278 70° East 472 543 36,000  Level Kansas City Center
12:38PM 36.7703 -93.7697 71° East 473 544 36,000  Level Kansas City Center
12:39PM 36.8136 -93.6156 71° East 471 542 36,000 240 Level Kansas City Center
12:40PM 36.8544 -93.4619 72° East 467 537 36,600 480 Climbing Kansas City Center
12:41PM 36.8994 -93.2958 71° East 461 531 37,000 180 Climbing Kansas City Center
12:42PM 36.9406 -93.1447 71° East 460 529 37,000  Level Kansas City Center
12:43PM 36.9797 -92.9958 72° East 456 525 37,000  Level Kansas City Center
12:44PM 37.0178 -92.8511 72° East 446 513 37,000  Level Kansas City Center
12:45PM 37.0556 -92.7081 72° East 438 504 37,000  Level Kansas City Center
12:46PM 37.0933 -92.5628 72° East 438 504 37,000  Level Kansas City Center
12:48PM 37.1397 -92.3825 72° East 449 517 37,000  Level Kansas City Center
12:49PM 37.1783 -92.2317 72° East 454 522 37,000  Level Kansas City Center
12:50PM 37.2175 -92.0825 72° East 454 522 37,000  Level Kansas City Center
12:51PM 37.2553 -91.9344 72° East 450 518 37,000  Level Kansas City Center
12:52PM 37.2931 -91.7847 72° East 451 519 37,000  Level Kansas City Center
12:53PM 37.3317 -91.6339 72° East 454 522 37,000  Level Kansas City Center
12:54PM 37.3769 -91.4536 72° East 453 521 37,000  Level Kansas City Center
12:55PM 37.4147 -91.3039 72° East 451 519 37,000  Level Kansas City Center
12:56PM 37.4525 -91.1531 72° East 452 520 37,000  Level Kansas City Center
12:57PM 37.4903 -91.0014 73° East 453 521 37,000  Level Kansas City Center
12:58PM 37.5269 -90.8508 73° East 452 520 37,000  Level Kansas City Center
12:59PM 37.5631 -90.6997 73° East 450 518 37,000  Level Kansas City Center
01:00PM 37.5997 -90.5489 73° East 450 518 37,000  Level Kansas City Center
01:01PM 37.6414 -90.3703 74° East 449 517 37,000  Level Kansas City Center
01:02PM 37.6736 -90.2214 75° East 447 514 37,000  Level Kansas City Center
01:03PM 37.6922 -90.0650 81° East 452 520 37,000  Level Kansas City Center
01:04PM 37.7103 -89.9083 82° East 454 522 37,000  Level Kansas City Center
01:05PM 37.7278 -89.7519 82° East 454 522 37,000  Level Kansas City Center
01:06PM 37.7439 -89.5964 82° East 452 520 37,000  Level Kansas City Center
01:07PM 37.7622 -89.4119 83° East 448 516 37,000  Level Kansas City Center
01:08PM 37.7800 -89.2581 82° East 445 512 37,000  Level Kansas City Center
01:09PM 37.7961 -89.1067 82° East 440 506 37,000  Level Kansas City Center
01:10PM 37.8111 -88.9514 83° East 441 507 37,000  Level Kansas City Center
01:11PM 37.8244 -88.7983 84° East 443 510 37,000  Level Kansas City Center
01:12PM 37.8469 -88.6164 81° East 445 512 37,000  Level Kansas City Center
01:13PM 37.8628 -88.4569 83° East 451 519 37,000  Level Kansas City Center
01:14PM 37.8783 -88.2958 83° East 458 527 37,000  Level Kansas City Center
01:15PM 37.8933 -88.1372 83° East 455 524 37,000  Level Kansas City Center
01:16PM 37.9078 -87.9792 83° East 453 521 37,000  Level Kansas City Center
01:17PM 37.9264 -87.7939 83° East 445 512 37,000  Level Kansas City Center
01:18PM 37.9286 -87.7633 85° East 444 511 37,000  Level Indianapolis Center
01:19PM 37.9425 -87.6081 83° East 445 512 37,000  Level Indianapolis Center
01:20PM 37.9586 -87.4233 84° East 442 509 37,000  Level Indianapolis Center
01:21PM 37.9717 -87.2678 84° East 445 512 37,000  Level Indianapolis Center
01:22PM 37.9847 -87.1131 84° East 445 512 37,000  Level Indianapolis Center
01:23PM 37.9981 -86.9575 84° East 447 514 37,000  Level Indianapolis Center
01:24PM 38.0106 -86.7994 84° East 453 521 37,000  Level Indianapolis Center
01:25PM 38.0269 -86.6078 84° East 458 527 37,000  Level Indianapolis Center
01:26PM 38.0394 -86.4467 84° East 459 528 37,000  Level Indianapolis Center
01:27PM 38.0519 -86.2861 84° East 459 528 37,000  Level Indianapolis Center
01:28PM 38.0639 -86.1244 85° East 460 529 37,000  Level Indianapolis Center
01:29PM 38.0761 -85.9664 84° East 453 521 37,000  Level Indianapolis Center
01:30PM 38.0869 -85.8139 85° East 435 501 37,000  Level Indianapolis Center
01:31PM 38.0972 -85.6650 85° East 424 488 37,000  Level Indianapolis Center
01:32PM 38.1089 -85.5158 84° East 424 488 37,000  Level Indianapolis Center
01:33PM 38.1239 -85.3308 84° East 438 504 37,000  Level Indianapolis Center
01:34PM 38.1378 -85.1678 84° East 455 524 37,000  Level Indianapolis Center
01:35PM 38.1494 -85.0072 85° East 457 526 37,000  Level Indianapolis Center
01:36PM 38.1628 -84.8456 84° East 460 529 37,000  Level Indianapolis Center
01:37PM 38.1750 -84.6847 84° East 458 527 37,000  Level Indianapolis Center
01:38PM 38.1869 -84.5239 85° East 457 526 37,000  Level Indianapolis Center
01:39PM 38.1994 -84.3375 85° East 454 522 37,000  Level Indianapolis Center
01:40PM 38.2111 -84.1775 85° East 453 521 37,000  Level Indianapolis Center
01:42PM 38.2217 -84.0189 85° East 451 519 37,000  Level Indianapolis Center
01:43PM 38.2319 -83.8622 85° East 447 514 37,000  Level Indianapolis Center
01:44PM 38.2417 -83.7050 85° East 445 512 37,000  Level Indianapolis Center
01:45PM 38.2511 -83.5486 86° East 444 511 37,000  Level Indianapolis Center
01:46PM 38.2617 -83.3903 85° East 447 514 37,000  Level Indianapolis Center
01:47PM 38.2725 -83.2064 86° East 445 512 37,000  Level Indianapolis Center
01:48PM 38.2817 -83.0478 86° East 447 514 37,000 -60 Level Indianapolis Center
01:49PM 38.2906 -82.8900 86° East 446 513 36,900 -420 Descending Indianapolis Center
01:50PM 38.2992 -82.7283 86° East 452 520 36,200 -480 Descending Indianapolis Center
01:51PM 38.3078 -82.5711 86° East 447 514 36,000 -120 Descending Indianapolis Center
01:52PM 38.3167 -82.4097 86° East 450 518 36,000  Level Indianapolis Center
01:53PM 38.3261 -82.2458 86° East 463 533 36,000  Level Indianapolis Center
01:54PM 38.3367 -82.0822 85° East 466 536 36,000  Level Indianapolis Center
01:55PM 38.3444 -81.9178 86° East 468 539 36,000 -660 Level Indianapolis Center
01:56PM 38.3483 -81.7194 89° East 473 544 34,700 -1,320 Descending Indianapolis Center
01:57PM 38.3433 -81.5569 92° East 468 539 33,300 -840 Descending Indianapolis Center
01:58PM 38.3381 -81.4008 92° East 453 521 33,000 -180 Descending Indianapolis Center
01:59PM 38.3328 -81.2417 92° East 453 521 33,000  Level Indianapolis Center
02:00PM 38.3267 -81.0742 93° East 473 544 33,000  Level Indianapolis Center
02:01PM 38.3233 -80.9806 93° East 456 525 33,000  Level Washington Center
02:02PM 38.3169 -80.7947 92° East 471 542 33,000  Level Washington Center
02:03PM 38.3281 -80.6342 85° East 473 544 33,000  Level Washington Center
02:04PM 38.3575 -80.4744 77° East 466 536 33,000 -240 Level Washington Center
02:05PM 38.3825 -80.3172 78° East 460 529 32,600 -900 Descending Washington Center
02:06PM 38.4092 -80.1706 77° East 460 529 31,300 -1,320 Descending Washington Center
02:07PM 38.4336 -80.0156 79° East 460 529 30,100 -780 Descending Washington Center
02:08PM 38.4603 -79.8608 78° East 454 522 29,800 -840 Descending Washington Center
02:09PM 38.4842 -79.7108 78° East 441 507 28,500 -1,500 Descending Washington Center
02:10PM 38.5081 -79.5611 78° East 434 499 26,900 -2,220 Descending Washington Center
02:11PM 38.5317 -79.4083 79° East 416 479 24,200 -1,740 Descending Washington Center
02:12PM 38.5525 -79.2767 79° East 391 450 23,400 -1,140 Descending Washington Center
02:13PM 38.5733 -79.1394 79° East 384 442 22,000 -1,500 Descending Washington Center
02:14PM 38.5958 -79.0131 77° East 379 436 20,500 -1,680 Descending Washington Center
02:15PM 38.6161 -78.8864 78° East 368 423 18,700 -1,740 Descending Washington Center
02:16PM 38.6400 -78.7681 75° East 357 411 17,000 -1,800 Descending Washington Center
02:17PM 38.6681 -78.6522 73° East 345 397 15,100 -1,920 Descending Washington Center
02:18PM 38.6939 -78.5414 73° East 334 384 13,200 -1,920 Descending Washington Center
02:19PM 38.7233 -78.4417 69° East 314 361 11,400 -1,560 Descending Washington Center
02:20PM 38.7831 -78.3800 39° Northeast 284 327 10,200 -1,260 Descending Washington Center
02:21PM 38.8450 -78.3131 40° Northeast 277 319 8,900 -1,320 Descending Washington Center
02:22PM 38.9008 -78.2431 44° Northeast 277 319 7,700 -1,260 Descending Washington Center
02:23PM 38.9506 -78.1647 51° Northeast 277 319 6,500 -1,200 Descending Washington Center
02:24PM 39.0000 -78.0917 49° Northeast 277 319 5,300 -780 Descending Washington Center
02:25PM 39.0494 -78.0239 47° Northeast 266 306 5,000 -180 Descending Washington Center
02:26PM 39.1069 -77.9617 40° Northeast 261 300 5,000  Level Washington Center
02:27PM 39.1581 -77.9069 40° Northeast 261 300 5,000 -240 Level Washington Center
02:28PM 39.1833 -77.7500 78° East 258 297 4,500 -540 Descending Potomac TRACON
02:29PM 39.1833 -77.6667 90° East 252 290 3,700 -720 Descending Potomac TRACON
02:30PM 39.1667 -77.5667 102° East 255 293 3,000 -360 Descending Potomac TRACON
02:31PM 39.1167 -77.5167 142° Southeast 239 275 3,000 -480 Level Potomac TRACON
02:32PM 39.0667 -77.4833 153° Southeast 220 253 2,100 -900 Descending Potomac TRACON
02:33PM 39.0167 -77.4667 165° South 151 174 1,300 -840 Descending Potomac TRACON
02:34PM 38.9833 -77.4667 180° South 139 160 500 -840 Descending Potomac TRACON
02:36PM 38.9474 -77.4599 159° South  Level Estimated
02:43PM 38.9474 -77.4599 159° South  Level Estimated
02:44PM 38.9474 -77.4599 159° South  Level Estimated